#dbistima — V2PX5 — position and weather

sailwx.info

Track history (hours):
 
Tides and Currents Weather Stations Pressure Air Temp Water Temp Dewpoint Dewpoint Depression Visibility Wind Speed Wind Dir Waves Ship Positions

#dbistima

Last reported at 2017-Aug-18 13:29 UTC. Time now 2017-Aug-18 14:24 UTC.
Position N 55°41' E 012°53'.

MMSI: 304010972.

Date/timePositionNaut miles runAvg speedWind from/ knotsBaromVisibWave heightAir tempDewpointWater temp
2017-Aug-18 13:29N 55°41' E 012°53'0 0.0
2017-Aug-18 12:59N 55°41' E 012°53'0 0.1
2017-Aug-18 12:29N 55°41' E 012°53'0 0.1
2017-Aug-18 11:59N 55°41' E 012°53'0 0.0
2017-Aug-18 11:29N 55°41' E 012°53'0 0.0
2017-Aug-18 10:59N 55°41' E 012°53'0 0.0
2017-Aug-18 10:29N 55°41' E 012°53'0 0.0
2017-Aug-18 09:56N 55°41' E 012°53'0 0.0
2017-Aug-18 09:26N 55°41' E 012°53'0 0.0
2017-Aug-18 08:59N 55°41' E 012°53'0 0.0
2017-Aug-18 08:29N 55°41' E 012°53'0 0.0
2017-Aug-18 07:59N 55°41' E 012°53'0 0.0
2017-Aug-18 07:29N 55°41' E 012°53'0 0.0
2017-Aug-18 06:59N 55°41' E 012°53'0 0.1
2017-Aug-18 06:30N 55°41' E 012°53'3 6.6
2017-Aug-18 06:00N 55°44' E 012°50'5 9.4
2017-Aug-18 05:30N 55°48' E 012°45'4 9.0
2017-Aug-18 05:00N 55°52' E 012°42'4 8.8
2017-Aug-18 04:30N 55°56' E 012°38'4 8.7
2017-Aug-18 04:00N 56°00' E 012°38'4 7.8
2017-Aug-18 03:30N 56°04' E 012°36'4 8.5
2017-Aug-18 03:00N 56°07' E 012°31'4 7.8
2017-Aug-18 02:30N 56°09' E 012°25'70 8.5
2017-Aug-17 18:16N 57°13' E 011°33'2 8.2
2017-Aug-17 18:00N 57°15' E 011°32'4 8.3
2017-Aug-17 17:29N 57°19' E 011°29'4 8.5
2017-Aug-17 17:00N 57°23' E 011°26'5 8.9
2017-Aug-17 16:28N 57°27' E 011°23'4 7.9
2017-Aug-17 16:00N 57°30' E 011°19'4 8.2
2017-Aug-17 15:30N 57°32' E 011°12'4 8.4
2017-Aug-17 15:00N 57°34' E 011°05'5 8.8
2017-Aug-17 14:29N 57°36' E 010°58'4 8.9
2017-Aug-17 14:00N 57°38' E 010°51'4 8.6
2017-Aug-17 13:30N 57°40' E 010°44'4 8.3
2017-Aug-17 13:00N 57°42' E 010°37'0 0.5
2017-Aug-17 12:29N 57°42' E 010°37'0 0.0
2017-Aug-17 11:59N 57°42' E 010°37'0 0.0
2017-Aug-17 11:29N 57°42' E 010°37'0 0.1
2017-Aug-17 10:59N 57°42' E 010°37'4 8.5
2017-Aug-17 10:30N 57°44' E 010°44'4 8.2
2017-Aug-17 10:00N 57°47' E 010°39'611.6
2017-Aug-17 09:29N 57°46' E 010°28'611.7
2017-Aug-17 09:00N 57°45' E 010°17'611.9
2017-Aug-17 08:29N 57°44' E 010°06'611.8
2017-Aug-17 08:00N 57°43' E 009°55'611.6
2017-Aug-17 07:31N 57°42' E 009°45'611.5
2017-Aug-17 07:00N 57°41' E 009°34'611.4
2017-Aug-17 06:29N 57°40' E 009°23'611.6
2017-Aug-17 05:59N 57°39' E 009°12'35811.5
2017-Aug-15 22:56N 56°35' W 001°37'611.1
2017-Aug-15 22:26N 56°33' W 001°47'511.4
2017-Aug-15 22:01N 56°33' W 001°55'611.5
2017-Aug-15 21:31N 56°32' W 002°06'611.5
2017-Aug-15 21:00N 56°30' W 002°16'611.4
2017-Aug-15 20:31N 56°29' W 002°26'611.3
2017-Aug-15 20:01N 56°28' W 002°36'610.7
2017-Aug-15 19:29N 56°27' W 002°46'5 9.6
2017-Aug-15 18:58N 56°28' W 002°55'1 0.0
2017-Aug-14 06:05N 56°28' W 002°56'0 1.5
2017-Aug-14 05:56N 56°28' W 002°56'4 8.8
2017-Aug-14 05:31N 56°27' W 002°49'4 7.4
2017-Aug-14 05:01N 56°27' W 002°43'3 5.9
2017-Aug-14 04:31N 56°28' W 002°38'3 5.3
2017-Aug-14 04:01N 56°29' W 002°33'0 0.1
2017-Aug-14 03:21N 56°29' W 002°33'0 0.0
2017-Aug-14 02:42N 56°29' W 002°33'0 0.0
2017-Aug-14 02:15N 56°29' W 002°33'0 0.2
2017-Aug-14 02:00N 56°29' W 002°33'0 0.0
2017-Aug-14 01:30N 56°29' W 002°33'0 0.0
2017-Aug-14 01:00N 56°29' W 002°33'0 0.0
2017-Aug-14 00:30N 56°29' W 002°33'0 0.0
2017-Aug-14 00:00N 56°29' W 002°33'0 0.0
2017-Aug-13 23:30N 56°29' W 002°33'0 0.0
2017-Aug-13 23:00N 56°29' W 002°33'0 0.0
2017-Aug-13 22:27N 56°29' W 002°33'0 0.0
2017-Aug-13 22:00N 56°29' W 002°33'0 0.1
2017-Aug-13 21:30N 56°29' W 002°33'0 0.0
2017-Aug-13 21:00N 56°29' W 002°33'2 3.4
2017-Aug-13 20:30N 56°30' W 002°31'5 9.6
2017-Aug-13 20:00N 56°34' W 002°26'510.7
2017-Aug-13 19:30N 56°38' W 002°21'2511.5
2017-Aug-13 17:19N 56°59' W 001°55'411.5
2017-Aug-13 17:00N 57°02' W 001°51'611.3
2017-Aug-13 16:30N 57°07' W 001°45'34910.3
2017-Aug-12 06:31N 62°01' E 004°26'0 9.1
2017-Aug-12 06:30N 62°01' E 004°26'5 9.2
2017-Aug-12 05:59N 62°05' E 004°32'4 9.0
2017-Aug-12 05:30N 62°09' E 004°37'5 9.1
2017-Aug-12 05:00N 62°12' E 004°43'5 9.1
2017-Aug-12 04:30N 62°16' E 004°49'5 9.4
2017-Aug-12 04:00N 62°19' E 004°56'5 9.6
2017-Aug-12 03:30N 62°23' E 005°02'5 9.4
2017-Aug-12 02:59N 62°27' E 005°09'4 8.9
2017-Aug-12 02:30N 62°30' E 005°15'4 8.4
2017-Aug-12 02:00N 62°33' E 005°22'4 7.8
2017-Aug-12 01:30N 62°36' E 005°27'4 7.3
2017-Aug-12 01:00N 62°39' E 005°32'4 7.1
2017-Aug-12 00:30N 62°42' E 005°37'3 6.8
2017-Aug-12 00:00N 62°44' E 005°42'3 6.2
2017-Aug-11 23:30N 62°47' E 005°46'3 6.4
2017-Aug-11 23:00N 62°49' E 005°51'3 6.4
2017-Aug-11 22:30N 62°52' E 005°55'3 6.5
2017-Aug-11 22:00N 62°54' E 006°00'3 6.3
2017-Aug-11 21:30N 62°56' E 006°04'3 6.4
2017-Aug-11 21:00N 62°59' E 006°09'3 6.4
2017-Aug-11 20:30N 63°01' E 006°14'3 6.7
2017-Aug-11 20:00N 63°04' E 006°18'235 7.1
2017-Aug-10 10:43N 66°14' E 011°43'210.5
2017-Aug-10 10:30N 66°14' E 011°48'510.7
2017-Aug-10 10:00N 66°16' E 012°01'510.5
2017-Aug-10 09:30N 66°17' E 012°13'510.4
2017-Aug-10 09:00N 66°15' E 012°25'4 8.5
2017-Aug-10 08:30N 66°15' E 012°36'5 9.2
2017-Aug-10 08:00N 66°18' E 012°44'510.7
2017-Aug-10 07:30N 66°21' E 012°56'510.3
2017-Aug-10 07:00N 66°26' E 012°59'510.5
2017-Aug-10 06:30N 66°31' E 012°58'5 9.3
2017-Aug-10 06:00N 66°35' E 013°04'510.2
2017-Aug-10 05:30N 66°40' E 013°07'610.9
2017-Aug-10 04:59N 66°45' E 013°13'510.5
2017-Aug-10 04:30N 66°48' E 013°24'510.9
2017-Aug-10 04:00N 66°49' E 013°37'510.4
2017-Aug-10 03:30N 66°48' E 013°50'2 0.2
2017-Aug-09 17:49N 66°49' E 013°56'  
Track history (hours):
 
Tides and Currents Weather Stations Pressure Air Temp Water Temp Dewpoint Dewpoint Depression Visibility Wind Speed Wind Dir Waves Ship Positions

#dbistima

Last reported at 2017-Aug-18 13:29 UTC. Time now 2017-Aug-18 14:24 UTC.
Position N 55°41' E 012°53'.

MMSI: 304010972.

Date/timePositionNaut miles runAvg speedWind from/ knotsBaromVisibWave heightAir tempDewpointWater temp
2017-Aug-18 13:29N 55°41' E 012°53'0 0.0
2017-Aug-18 12:59N 55°41' E 012°53'0 0.1
2017-Aug-18 12:29N 55°41' E 012°53'0 0.1
2017-Aug-18 11:59N 55°41' E 012°53'0 0.0
2017-Aug-18 11:29N 55°41' E 012°53'0 0.0
2017-Aug-18 10:59N 55°41' E 012°53'0 0.0
2017-Aug-18 10:29N 55°41' E 012°53'0 0.0
2017-Aug-18 09:56N 55°41' E 012°53'0 0.0
2017-Aug-18 09:26N 55°41' E 012°53'0 0.0
2017-Aug-18 08:59N 55°41' E 012°53'0 0.0
2017-Aug-18 08:29N 55°41' E 012°53'0 0.0
2017-Aug-18 07:59N 55°41' E 012°53'0 0.0
2017-Aug-18 07:29N 55°41' E 012°53'0 0.0
2017-Aug-18 06:59N 55°41' E 012°53'0 0.1
2017-Aug-18 06:30N 55°41' E 012°53'3 6.6
2017-Aug-18 06:00N 55°44' E 012°50'5 9.4
2017-Aug-18 05:30N 55°48' E 012°45'4 9.0
2017-Aug-18 05:00N 55°52' E 012°42'4 8.8
2017-Aug-18 04:30N 55°56' E 012°38'4 8.7
2017-Aug-18 04:00N 56°00' E 012°38'4 7.8
2017-Aug-18 03:30N 56°04' E 012°36'4 8.5
2017-Aug-18 03:00N 56°07' E 012°31'4 7.8
2017-Aug-18 02:30N 56°09' E 012°25'70 8.5
2017-Aug-17 18:16N 57°13' E 011°33'2 8.2
2017-Aug-17 18:00N 57°15' E 011°32'4 8.3
2017-Aug-17 17:29N 57°19' E 011°29'4 8.5
2017-Aug-17 17:00N 57°23' E 011°26'5 8.9
2017-Aug-17 16:28N 57°27' E 011°23'4 7.9
2017-Aug-17 16:00N 57°30' E 011°19'4 8.2
2017-Aug-17 15:30N 57°32' E 011°12'4 8.4
2017-Aug-17 15:00N 57°34' E 011°05'5 8.8
2017-Aug-17 14:29N 57°36' E 010°58'4 8.9
2017-Aug-17 14:00N 57°38' E 010°51'4 8.6
2017-Aug-17 13:30N 57°40' E 010°44'4 8.3
2017-Aug-17 13:00N 57°42' E 010°37'0 0.5
2017-Aug-17 12:29N 57°42' E 010°37'0 0.0
2017-Aug-17 11:59N 57°42' E 010°37'0 0.0
2017-Aug-17 11:29N 57°42' E 010°37'0 0.1
2017-Aug-17 10:59N 57°42' E 010°37'4 8.5
2017-Aug-17 10:30N 57°44' E 010°44'4 8.2
2017-Aug-17 10:00N 57°47' E 010°39'611.6
2017-Aug-17 09:29N 57°46' E 010°28'611.7
2017-Aug-17 09:00N 57°45' E 010°17'611.9
2017-Aug-17 08:29N 57°44' E 010°06'611.8
2017-Aug-17 08:00N 57°43' E 009°55'611.6
2017-Aug-17 07:31N 57°42' E 009°45'611.5
2017-Aug-17 07:00N 57°41' E 009°34'611.4
2017-Aug-17 06:29N 57°40' E 009°23'611.6
2017-Aug-17 05:59N 57°39' E 009°12'35811.5
2017-Aug-15 22:56N 56°35' W 001°37'611.1
2017-Aug-15 22:26N 56°33' W 001°47'511.4
2017-Aug-15 22:01N 56°33' W 001°55'611.5
2017-Aug-15 21:31N 56°32' W 002°06'611.5
2017-Aug-15 21:00N 56°30' W 002°16'611.4
2017-Aug-15 20:31N 56°29' W 002°26'611.3
2017-Aug-15 20:01N 56°28' W 002°36'610.7
2017-Aug-15 19:29N 56°27' W 002°46'5 9.6
2017-Aug-15 18:58N 56°28' W 002°55'1 0.0
2017-Aug-14 06:05N 56°28' W 002°56'0 1.5
2017-Aug-14 05:56N 56°28' W 002°56'4 8.8
2017-Aug-14 05:31N 56°27' W 002°49'4 7.4
2017-Aug-14 05:01N 56°27' W 002°43'3 5.9
2017-Aug-14 04:31N 56°28' W 002°38'3 5.3
2017-Aug-14 04:01N 56°29' W 002°33'0 0.1
2017-Aug-14 03:21N 56°29' W 002°33'0 0.0
2017-Aug-14 02:42N 56°29' W 002°33'0 0.0
2017-Aug-14 02:15N 56°29' W 002°33'0 0.2
2017-Aug-14 02:00N 56°29' W 002°33'0 0.0
2017-Aug-14 01:30N 56°29' W 002°33'0 0.0
2017-Aug-14 01:00N 56°29' W 002°33'0 0.0
2017-Aug-14 00:30N 56°29' W 002°33'0 0.0
2017-Aug-14 00:00N 56°29' W 002°33'0 0.0
2017-Aug-13 23:30N 56°29' W 002°33'0 0.0
2017-Aug-13 23:00N 56°29' W 002°33'0 0.0
2017-Aug-13 22:27N 56°29' W 002°33'0 0.0
2017-Aug-13 22:00N 56°29' W 002°33'0 0.1
2017-Aug-13 21:30N 56°29' W 002°33'0 0.0
2017-Aug-13 21:00N 56°29' W 002°33'2 3.4
2017-Aug-13 20:30N 56°30' W 002°31'5 9.6
2017-Aug-13 20:00N 56°34' W 002°26'510.7
2017-Aug-13 19:30N 56°38' W 002°21'2511.5
2017-Aug-13 17:19N 56°59' W 001°55'411.5
2017-Aug-13 17:00N 57°02' W 001°51'611.3
2017-Aug-13 16:30N 57°07' W 001°45'34910.3
2017-Aug-12 06:31N 62°01' E 004°26'0 9.1
2017-Aug-12 06:30N 62°01' E 004°26'5 9.2
2017-Aug-12 05:59N 62°05' E 004°32'4 9.0
2017-Aug-12 05:30N 62°09' E 004°37'5 9.1
2017-Aug-12 05:00N 62°12' E 004°43'5 9.1
2017-Aug-12 04:30N 62°16' E 004°49'5 9.4
2017-Aug-12 04:00N 62°19' E 004°56'5 9.6
2017-Aug-12 03:30N 62°23' E 005°02'5 9.4
2017-Aug-12 02:59N 62°27' E 005°09'4 8.9
2017-Aug-12 02:30N 62°30' E 005°15'4 8.4
2017-Aug-12 02:00N 62°33' E 005°22'4 7.8
2017-Aug-12 01:30N 62°36' E 005°27'4 7.3
2017-Aug-12 01:00N 62°39' E 005°32'4 7.1
2017-Aug-12 00:30N 62°42' E 005°37'3 6.8
2017-Aug-12 00:00N 62°44' E 005°42'3 6.2
2017-Aug-11 23:30N 62°47' E 005°46'3 6.4
2017-Aug-11 23:00N 62°49' E 005°51'3 6.4
2017-Aug-11 22:30N 62°52' E 005°55'3 6.5
2017-Aug-11 22:00N 62°54' E 006°00'3 6.3
2017-Aug-11 21:30N 62°56' E 006°04'3 6.4
2017-Aug-11 21:00N 62°59' E 006°09'3 6.4
2017-Aug-11 20:30N 63°01' E 006°14'3 6.7
2017-Aug-11 20:00N 63°04' E 006°18'235 7.1
2017-Aug-10 10:43N 66°14' E 011°43'210.5
2017-Aug-10 10:30N 66°14' E 011°48'510.7
2017-Aug-10 10:00N 66°16' E 012°01'510.5
2017-Aug-10 09:30N 66°17' E 012°13'510.4
2017-Aug-10 09:00N 66°15' E 012°25'4 8.5
2017-Aug-10 08:30N 66°15' E 012°36'5 9.2
2017-Aug-10 08:00N 66°18' E 012°44'510.7
2017-Aug-10 07:30N 66°21' E 012°56'510.3
2017-Aug-10 07:00N 66°26' E 012°59'510.5
2017-Aug-10 06:30N 66°31' E 012°58'5 9.3
2017-Aug-10 06:00N 66°35' E 013°04'510.2
2017-Aug-10 05:30N 66°40' E 013°07'610.9
2017-Aug-10 04:59N 66°45' E 013°13'510.5
2017-Aug-10 04:30N 66°48' E 013°24'510.9
2017-Aug-10 04:00N 66°49' E 013°37'510.4
2017-Aug-10 03:30N 66°48' E 013°50'2 0.2
2017-Aug-09 17:49N 66°49' E 013°56'  

Dump ship's entire track history